Time;durP1;ratioP1;P1;durP2;ratioP2;P2;SDS_P1;SDS_P2;PMS_P1;PMS_P2;Temp;Humidity;BMP_temperature;BMP_pressure;BME280_temperature;BME280_humidity;BME280_pressure;Samples;Min_cycle;Max_cycle;Signal;HPM_P1;HPM_P2
2023/02/25 00:01:55;;;;;;;19.90;3.25;;;3.40;99.90;;;;;;12457351;28;20053;-36
2023/02/25 00:08:05;;;;;;;15.52;3.17;;;3.50;99.90;;;;;;12430564;28;20180;-36
2023/02/25 00:14:09;;;;;;;18.73;2.60;;;3.40;99.90;;;;;;12425162;28;20181;-36
2023/02/25 00:20:12;;;;;;;22.10;3.92;;;3.50;99.90;;;;;;12444590;28;20188;-36
2023/02/25 00:26:16;;;;;;;17.50;2.60;;;3.50;99.90;;;;;;12442937;28;20712;-35
2023/02/25 00:32:19;;;;;;;21.95;3.28;;;3.50;99.90;;;;;;12426022;28;20088;-36
2023/02/25 00:38:22;;;;;;;14.55;2.60;;;3.50;99.90;;;;;;12444310;28;20525;-36
2023/02/25 00:44:24;;;;;;;19.10;2.70;;;3.50;99.90;;;;;;12424638;28;20049;-36
2023/02/25 00:50:29;;;;;;;18.90;2.60;;;3.50;99.90;;;;;;12406241;28;20100;-36
2023/02/25 00:56:32;;;;;;;18.77;2.42;;;3.50;99.90;;;;;;12441578;28;20525;-36
2023/02/25 01:02:35;;;;;;;16.50;2.22;;;3.50;99.90;;;;;;12439051;28;20057;-36
2023/02/25 01:08:37;;;;;;;15.30;2.70;;;3.50;99.90;;;;;;12441002;28;20089;-35
2023/02/25 01:14:40;;;;;;;20.20;2.15;;;3.50;99.90;;;;;;12421416;28;20057;-35
2023/02/25 01:20:42;;;;;;;15.35;2.63;;;3.40;99.90;;;;;;12425401;28;20053;-36
2023/02/25 01:26:46;;;;;;;25.38;3.22;;;3.50;99.90;;;;;;12439799;28;20112;-36
2023/02/25 01:32:49;;;;;;;14.60;2.43;;;3.50;99.90;;;;;;12439078;28;20073;-36
2023/02/25 01:38:51;;;;;;;17.67;2.85;;;3.40;99.90;;;;;;12438263;28;20184;-35
2023/02/25 01:45:16;;;;;;;15.15;2.17;;;3.40;99.90;;;;;;12437818;28;20138;-36
2023/02/25 01:51:19;;;;;;;17.55;2.65;;;3.40;99.90;;;;;;12441975;28;20049;-36
2023/02/25 01:57:22;;;;;;;15.13;2.75;;;3.40;99.90;;;;;;12427811;28;20058;-36
2023/02/25 02:03:26;;;;;;;13.13;2.33;;;3.40;99.90;;;;;;12432560;28;20042;-36
2023/02/25 02:09:30;;;;;;;18.20;2.38;;;3.40;99.90;;;;;;12449767;28;20058;-35
2023/02/25 02:15:37;;;;;;;16.10;2.33;;;3.40;99.90;;;;;;12440987;28;20192;-37
2023/02/25 02:21:48;;;;;;;14.30;2.50;;;3.40;99.90;;;;;;12447140;28;20049;-36
2023/02/25 02:28:12;;;;;;;15.80;2.20;;;3.40;99.90;;;;;;12452699;28;20049;-37
2023/02/25 02:34:40;;;;;;;24.13;3.00;;;3.50;99.90;;;;;;12449961;28;20057;-36
2023/02/25 02:41:26;;;;;;;14.52;2.13;;;3.30;99.90;;;;;;12449439;28;20089;-36
2023/02/25 02:47:39;;;;;;;15.65;2.00;;;3.50;99.90;;;;;;12380773;28;20070;-37
2023/02/25 02:53:46;;;;;;;13.30;2.58;;;3.50;99.90;;;;;;12433517;28;20038;-37
2023/02/25 03:00:00;;;;;;;20.02;2.55;;;3.50;99.90;;;;;;12446989;28;20538;-37
2023/02/25 03:06:07;;;;;;;18.85;2.28;;;3.40;99.90;;;;;;12447267;28;20115;-36
2023/02/25 03:12:10;;;;;;;16.17;2.05;;;3.40;99.90;;;;;;12426336;28;20046;-37
2023/02/25 03:18:35;;;;;;;15.32;2.13;;;3.40;99.90;;;;;;12433144;28;20763;-36
2023/02/25 03:24:58;;;;;;;10.30;1.90;;;3.40;99.90;;;;;;12429405;28;20054;-37
2023/02/25 03:31:16;;;;;;;13.15;1.83;;;3.40;99.90;;;;;;12439045;28;20108;-36
2023/02/25 03:37:22;;;;;;;11.10;2.08;;;3.40;99.90;;;;;;12442215;28;20049;-36
2023/02/25 03:43:29;;;;;;;8.70;1.80;;;3.40;99.90;;;;;;12445739;28;20421;-36
2023/02/25 03:49:47;;;;;;;10.52;1.55;;;3.50;99.90;;;;;;12425829;28;20129;-36
2023/02/25 03:55:49;;;;;;;10.43;1.40;;;3.40;99.90;;;;;;12423661;28;20050;-36
2023/02/25 04:01:55;;;;;;;9.73;1.63;;;3.40;99.90;;;;;;12440148;28;20053;-36
2023/02/25 04:07:58;;;;;;;7.32;1.50;;;3.40;99.90;;;;;;12428160;28;20136;-36
2023/02/25 04:14:00;;;;;;;16.60;2.30;;;3.40;99.90;;;;;;12440371;28;20497;-37
2023/02/25 04:20:04;;;;;;;12.07;2.10;;;3.40;99.90;;;;;;12423794;28;20065;-36
2023/02/25 04:26:06;;;;;;;10.97;2.00;;;3.40;99.90;;;;;;12429587;28;20046;-36
2023/02/25 04:32:08;;;;;;;9.93;1.45;;;3.40;99.90;;;;;;12433627;28;20517;-36
2023/02/25 04:38:10;;;;;;;9.18;1.88;;;3.30;99.90;;;;;;12420368;28;20050;-36
2023/02/25 04:44:13;;;;;;;10.75;2.15;;;3.20;99.90;;;;;;12413896;28;20077;-36
2023/02/25 04:50:15;;;;;;;5.50;0.80;;;3.20;99.90;;;;;;12414587;28;20058;-36
2023/02/25 04:56:18;;;;;;;5.40;0.80;;;3.10;99.90;;;;;;12420300;28;20203;-36
2023/02/25 05:02:21;;;;;;;8.55;1.08;;;3.00;99.90;;;;;;12419755;28;20057;-36
2023/02/25 05:08:24;;;;;;;6.28;1.77;;;3.10;99.90;;;;;;12421617;28;20429;-36
2023/02/25 05:14:26;;;;;;;5.63;1.10;;;3.00;99.90;;;;;;12430026;28;20050;-36
2023/02/25 05:20:29;;;;;;;14.27;2.45;;;3.00;99.90;;;;;;12420919;28;20046;-36
2023/02/25 05:26:31;;;;;;;5.72;0.93;;;3.00;99.90;;;;;;12422307;28;20459;-36
2023/02/25 05:32:33;;;;;;;5.60;1.27;;;3.00;99.90;;;;;;12440347;28;20045;-36
2023/02/25 05:38:37;;;;;;;4.68;1.05;;;3.00;99.90;;;;;;12439555;28;20053;-36
2023/02/25 05:44:40;;;;;;;5.95;0.90;;;2.90;99.90;;;;;;12419535;28;20049;-36
2023/02/25 05:50:42;;;;;;;4.82;1.10;;;2.90;99.90;;;;;;12419706;28;20049;-36
2023/02/25 05:56:44;;;;;;;7.28;1.85;;;2.80;99.90;;;;;;12433593;28;20054;-36
2023/02/25 06:02:47;;;;;;;6.72;1.20;;;2.90;99.90;;;;;;12439498;28;20494;-36
2023/02/25 06:08:50;;;;;;;6.65;1.77;;;2.90;99.90;;;;;;12421951;28;20123;-36
2023/02/25 06:14:52;;;;;;;8.75;1.63;;;2.80;99.90;;;;;;12414722;28;20092;-36
2023/02/25 06:20:54;;;;;;;8.82;1.80;;;2.80;99.90;;;;;;12436220;28;20096;-36
2023/02/25 06:26:56;;;;;;;3.90;1.50;;;2.80;99.90;;;;;;12442496;28;20042;-36
2023/02/25 06:32:59;;;;;;;8.55;1.70;;;2.80;99.90;;;;;;12421192;28;20058;-36
2023/02/25 06:39:01;;;;;;;5.72;1.60;;;2.80;99.90;;;;;;12434668;28;20060;-37
2023/02/25 06:45:04;;;;;;;7.82;1.80;;;2.80;99.90;;;;;;12434424;28;20069;-36
2023/02/25 06:51:08;;;;;;;5.40;1.58;;;3.00;99.90;;;;;;12416063;28;20132;-36
2023/02/25 06:57:11;;;;;;;8.38;1.88;;;3.00;99.90;;;;;;12398233;28;20054;-36
2023/02/25 07:03:16;;;;;;;6.63;2.73;;;2.90;99.90;;;;;;12421317;28;20061;-36
2023/02/25 07:09:19;;;;;;;5.95;1.67;;;3.00;99.90;;;;;;12421532;28;20157;-36
2023/02/25 07:15:21;;;;;;;6.32;2.05;;;3.00;99.90;;;;;;12412456;28;20104;-36
2023/02/25 07:21:28;;;;;;;6.03;1.40;;;3.10;99.90;;;;;;12436125;28;20050;-36
2023/02/25 07:27:30;;;;;;;8.50;1.50;;;3.10;99.90;;;;;;12424540;28;20049;-36
2023/02/25 07:33:32;;;;;;;4.57;0.90;;;3.10;99.90;;;;;;12425537;28;20081;-37
2023/02/25 07:39:35;;;;;;;5.85;1.45;;;3.10;99.90;;;;;;12424608;28;20184;-37
2023/02/25 07:45:37;;;;;;;4.28;0.88;;;3.10;99.90;;;;;;12491390;23;20136;-80
2023/02/25 07:51:39;;;;;;;4.85;1.00;;;3.20;99.90;;;;;;12542278;28;20560;-79
2023/02/25 07:57:41;;;;;;;4.53;0.90;;;3.20;99.90;;;;;;12545243;28;20435;-79
2023/02/25 08:03:47;;;;;;;4.28;0.70;;;3.20;99.90;;;;;;12543426;28;20485;-80
2023/02/25 08:09:49;;;;;;;4.95;0.88;;;3.20;99.90;;;;;;12523988;28;20091;-80
2023/02/25 08:15:51;;;;;;;5.93;0.90;;;3.20;99.90;;;;;;12539481;28;20033;-79
2023/02/25 08:21:53;;;;;;;6.03;1.10;;;3.30;99.90;;;;;;12520708;28;20511;-80
2023/02/25 08:27:57;;;;;;;4.68;0.70;;;3.30;99.90;;;;;;12526288;28;20132;-79
2023/02/25 08:33:59;;;;;;;8.18;0.95;;;3.50;99.90;;;;;;12547286;28;20052;-80
2023/02/25 08:40:01;;;;;;;3.25;0.95;;;3.40;99.90;;;;;;12538217;28;20151;-80
2023/02/25 08:46:05;;;;;;;9.55;0.88;;;3.40;99.90;;;;;;12540124;28;20049;-79
2023/02/25 08:52:10;;;;;;;6.22;0.80;;;2.90;99.90;;;;;;12526613;28;20049;-79
2023/02/25 08:58:12;;;;;;;4.07;0.65;;;2.00;99.90;;;;;;12518050;28;20057;-79
2023/02/25 09:04:17;;;;;;;7.15;1.30;;;1.90;99.90;;;;;;12510665;28;20140;-79
2023/02/25 09:10:19;;;;;;;4.30;1.98;;;1.90;99.90;;;;;;12524198;28;20412;-80
2023/02/25 09:16:27;;;;;;;6.07;1.48;;;2.10;99.90;;;;;;12534129;28;20474;-80
2023/02/25 09:22:31;;;;;;;9.80;1.50;;;2.40;99.90;;;;;;12522694;28;20045;-79
2023/02/25 09:28:34;;;;;;;11.02;1.98;;;2.80;99.90;;;;;;12520320;28;20076;-79
2023/02/25 09:34:36;;;;;;;4.20;0.95;;;2.90;99.90;;;;;;12518952;28;20049;-79
2023/02/25 09:40:44;;;;;;;5.28;0.90;;;2.40;99.90;;;;;;12533611;28;20045;-80
2023/02/25 09:47:13;;;;;;;7.28;0.90;;;1.60;99.90;;;;;;12515458;28;20150;-79
2023/02/25 09:53:21;;;;;;;6.10;0.88;;;1.40;99.90;;;;;;12522169;28;20152;-79
2023/02/25 09:59:27;;;;;;;7.47;1.15;;;1.30;99.90;;;;;;12536596;28;20126;-80
2023/02/25 10:05:44;;;;;;;5.72;1.45;;;1.50;99.90;;;;;;12520659;28;20511;-79
2023/02/25 10:11:54;;;;;;;5.25;0.77;;;1.90;99.90;;;;;;12506121;28;20053;-79
2023/02/25 10:18:22;;;;;;;4.35;0.70;;;1.90;99.90;;;;;;12526282;28;20083;-79
2023/02/25 10:24:37;;;;;;;4.57;0.93;;;2.10;99.90;;;;;;12528867;28;20562;-80
2023/02/25 10:31:26;;;;;;;6.47;0.82;;;2.20;99.90;;;;;;12555927;28;20045;-79
2023/02/25 10:37:34;;;;;;;5.15;1.42;;;2.40;99.90;;;;;;12348460;28;20059;-80
2023/02/25 10:43:37;;;;;;;5.35;1.13;;;2.90;99.90;;;;;;12535410;28;20076;-80
2023/02/25 10:49:39;;;;;;;4.72;0.60;;;3.50;99.90;;;;;;12536684;28;20049;-80
2023/02/25 10:55:52;;;;;;;2.95;0.93;;;3.10;99.90;;;;;;12538685;28;20186;-79
2023/02/25 11:01:55;;;;;;;2.78;0.70;;;2.90;99.90;;;;;;12536784;28;20132;-80
2023/02/25 11:07:57;;;;;;;7.22;0.85;;;2.90;99.90;;;;;;12537596;28;20041;-79
2023/02/25 11:14:04;;;;;;;2.58;0.65;;;3.20;99.90;;;;;;12528452;28;20048;-79
2023/02/25 11:20:22;;;;;;;4.43;0.70;;;3.30;99.90;;;;;;12537752;28;20056;-80
2023/02/25 11:26:32;;;;;;;1.92;0.60;;;3.10;99.90;;;;;;12515960;28;20048;-80
2023/02/25 11:32:41;;;;;;;2.88;0.50;;;2.90;99.90;;;;;;12541089;28;20048;-79
2023/02/25 11:38:44;;;;;;;3.08;0.50;;;2.90;99.90;;;;;;12524756;28;20135;-79
2023/02/25 11:44:46;;;;;;;3.67;0.70;;;3.20;99.90;;;;;;12553473;28;20113;-79
2023/02/25 11:51:09;;;;;;;2.90;0.75;;;3.50;99.90;;;;;;12543793;28;20052;-79
2023/02/25 11:57:36;;;;;;;3.10;0.50;;;3.10;99.90;;;;;;12519436;28;20092;-78
2023/02/25 12:04:13;;;;;;;3.35;0.70;;;3.20;99.90;;;;;;12495829;28;20179;-78
2023/02/25 12:10:35;;;;;;;3.78;0.80;;;3.50;99.90;;;;;;12519880;28;20055;-78
2023/02/25 12:16:57;;;;;;;2.28;0.57;;;3.20;99.90;;;;;;12536441;28;20094;-78
2023/02/25 12:23:11;;;;;;;5.30;0.73;;;3.40;99.90;;;;;;12494126;28;20057;-78
2023/02/25 12:29:50;;;;;;;2.88;0.77;;;3.40;99.90;;;;;;12549121;28;20080;-78
2023/02/25 12:36:12;;;;;;;5.20;0.43;;;3.40;99.90;;;;;;12523748;28;20073;-79
2023/02/25 12:42:27;;;;;;;2.25;0.43;;;3.60;99.90;;;;;;12518702;28;20124;-79
2023/02/25 12:49:02;;;;;;;1.45;0.32;;;3.40;99.90;;;;;;12537438;28;20060;-79
2023/02/25 12:55:24;;;;;;;3.15;0.70;;;3.40;99.90;;;;;;12540028;28;20139;-80
2023/02/25 13:01:33;;;;;;;3.42;0.52;;;3.30;99.90;;;;;;12554764;28;20051;-79
2023/02/25 13:07:56;;;;;;;2.65;0.40;;;3.40;99.90;;;;;;12529016;28;20502;-79
2023/02/25 13:14:14;;;;;;;2.30;0.68;;;3.40;99.90;;;;;;12537908;28;20115;-79
2023/02/25 13:20:44;;;;;;;2.10;0.60;;;3.30;99.90;;;;;;12536450;28;20059;-80
2023/02/25 13:27:13;;;;;;;2.35;0.50;;;3.70;99.90;;;;;;12547974;28;20037;-78
2023/02/25 13:33:44;;;;;;;3.75;0.60;;;3.80;99.90;;;;;;12531081;28;20056;-78
2023/02/25 13:40:23;;;;;;;1.55;0.45;;;3.60;99.90;;;;;;12537124;28;20076;-79
2023/02/25 13:46:52;;;;;;;4.43;0.88;;;3.40;99.90;;;;;;12523143;28;20111;-78
2023/02/25 13:53:21;;;;;;;2.53;0.70;;;3.30;99.90;;;;;;12529261;28;20045;-78
2023/02/25 13:59:41;;;;;;;3.22;0.70;;;3.70;99.90;;;;;;12546362;28;20064;-78
2023/02/25 14:06:21;;;;;;;3.95;0.60;;;3.50;99.90;;;;;;12547982;28;20041;-78
2023/02/25 14:12:50;;;;;;;2.30;0.77;;;3.30;99.90;;;;;;12516068;28;20124;-78
2023/02/25 14:19:18;;;;;;;4.22;0.60;;;3.20;99.90;;;;;;12541883;28;20493;-77
2023/02/25 14:25:49;;;;;;;1.23;0.43;;;3.20;99.90;;;;;;12539178;28;20041;-79
2023/02/25 14:32:27;;;;;;;2.85;0.75;;;3.10;99.90;;;;;;12510502;28;20041;-78
2023/02/25 14:38:55;;;;;;;1.17;0.35;;;3.20;99.90;;;;;;12552409;28;20053;-78
2023/02/25 14:45:01;;;;;;;4.03;0.85;;;3.00;99.90;;;;;;12494704;28;20055;-78
2023/02/25 14:51:21;;;;;;;2.03;0.70;;;2.90;99.90;;;;;;12531837;28;20175;-78
2023/02/25 14:57:41;;;;;;;2.95;0.88;;;3.30;99.90;;;;;;12531998;28;20061;-78
2023/02/25 15:04:01;;;;;;;3.03;0.70;;;3.20;99.90;;;;;;12535856;28;20480;-79
2023/02/25 15:10:29;;;;;;;5.53;1.05;;;3.00;99.90;;;;;;12552494;28;20055;-78
2023/02/25 15:16:58;;;;;;;3.90;0.65;;;3.10;99.90;;;;;;12545734;28;20453;-78
2023/02/25 15:23:15;;;;;;;3.97;0.93;;;3.40;99.90;;;;;;12524072;28;20068;-79
2023/02/25 15:29:43;;;;;;;3.58;0.95;;;3.30;99.90;;;;;;12543921;28;20201;-79
2023/02/25 15:35:48;;;;;;;4.50;0.75;;;3.20;99.90;;;;;;12521904;28;20048;-78
2023/02/25 15:42:01;;;;;;;3.85;0.88;;;3.20;99.90;;;;;;12533190;28;20049;-79
2023/02/25 15:48:06;;;;;;;3.95;0.95;;;3.20;99.90;;;;;;12534342;28;20059;-79
2023/02/25 15:54:10;;;;;;;6.28;1.00;;;2.90;99.90;;;;;;12512295;28;20037;-79
2023/02/25 16:00:46;;;;;;;5.40;1.03;;;2.90;99.90;;;;;;12542322;28;20114;-78
2023/02/25 16:06:48;;;;;;;5.47;0.90;;;2.70;99.90;;;;;;12513507;28;20052;-78
2023/02/25 16:12:54;;;;;;;4.43;0.88;;;2.70;99.90;;;;;;12523144;28;20135;-78
2023/02/25 16:18:57;;;;;;;2.08;0.90;;;2.50;99.90;;;;;;12535925;28;20059;-79
2023/02/25 16:25:00;;;;;;;4.45;1.15;;;2.50;99.90;;;;;;12531393;28;20037;-79
2023/02/25 16:31:19;;;;;;;6.38;1.90;;;2.50;99.90;;;;;;12533055;28;20049;-79
2023/02/25 16:37:33;;;;;;;7.57;1.58;;;2.30;99.90;;;;;;12547288;28;20358;-78
2023/02/25 16:43:38;;;;;;;4.63;0.80;;;2.10;99.90;;;;;;12534332;28;20053;-78
2023/02/25 16:49:44;;;;;;;;;;;2.10;99.90;;;;;;12525934;28;20045;-78
2023/02/25 16:55:47;;;;;;;3.13;1.10;;;2.00;99.90;;;;;;12533120;28;19927;-79
2023/02/25 17:01:57;;;;;;;4.35;1.33;;;2.00;99.90;;;;;;12534980;28;20055;-79
2023/02/25 17:08:04;;;;;;;8.20;2.13;;;1.80;99.90;;;;;;12527570;28;20045;-78
2023/02/25 17:14:06;;;;;;;5.63;2.25;;;1.80;99.90;;;;;;12533849;28;20049;-79
2023/02/25 17:20:15;;;;;;;2.65;1.20;;;1.80;99.90;;;;;;12532353;28;20053;-78
2023/02/25 17:26:20;;;;;;;3.95;1.50;;;1.90;99.90;;;;;;12537799;28;20175;-78
2023/02/25 17:32:28;;;;;;;5.40;1.47;;;1.80;99.90;;;;;;12548738;28;20045;-79
2023/02/25 17:38:30;;;;;;;3.42;1.27;;;1.70;99.90;;;;;;12573929;28;20028;-79
2023/02/25 17:44:38;;;;;;;6.03;1.40;;;1.60;99.90;;;;;;12589971;28;20045;-79
2023/02/25 17:50:40;;;;;;;4.53;1.30;;;1.50;99.90;;;;;;12565469;28;20051;-79
2023/02/25 17:56:43;;;;;;;12.52;2.85;;;1.40;99.90;;;;;;12531319;28;20083;-79
2023/02/25 18:03:05;;;;;;;6.28;1.65;;;1.30;99.90;;;;;;12530919;28;20052;-78
2023/02/25 18:09:35;;;;;;;9.50;1.92;;;1.10;99.90;;;;;;12524071;28;20142;-77
2023/02/25 18:15:38;;;;;;;6.60;2.40;;;1.10;99.90;;;;;;12526200;28;20404;-78
2023/02/25 18:21:41;;;;;;;9.32;2.53;;;1.10;99.90;;;;;;12515521;28;20060;-78
2023/02/25 18:27:44;;;;;;;5.10;1.57;;;1.00;99.90;;;;;;12524292;28;20052;-78
2023/02/25 18:33:46;;;;;;;6.95;2.47;;;1.00;99.90;;;;;;12538938;28;20060;-78
2023/02/25 18:39:50;;;;;;;8.18;1.85;;;1.00;99.90;;;;;;12551772;28;20053;-79
2023/02/25 18:45:51;;;;;;;6.95;1.60;;;0.90;99.90;;;;;;12550219;28;20102;-78
2023/02/25 18:51:53;;;;;;;5.38;1.85;;;0.90;99.90;;;;;;12543659;28;20048;-79
2023/02/25 18:57:56;;;;;;;7.25;1.40;;;0.90;99.90;;;;;;12521078;28;20079;-78
2023/02/25 19:03:58;;;;;;;6.35;1.52;;;0.90;99.90;;;;;;12532065;28;20041;-78
2023/02/25 19:10:01;;;;;;;5.55;1.23;;;1.00;99.90;;;;;;12555254;28;20070;-78
2023/02/25 19:16:03;;;;;;;7.25;1.92;;;1.10;99.90;;;;;;12529522;28;20041;-78
2023/02/25 19:22:05;;;;;;;5.68;1.45;;;1.20;99.90;;;;;;12543399;28;20043;-79
2023/02/25 19:28:07;;;;;;;3.67;1.38;;;1.10;99.90;;;;;;12532784;28;20053;-78
2023/02/25 19:34:09;;;;;;;4.82;1.10;;;0.80;99.90;;;;;;12552954;28;20045;-78
2023/02/25 19:40:14;;;;;;;6.88;1.85;;;0.70;99.90;;;;;;12546324;28;20417;-78
2023/02/25 19:46:16;;;;;;;2.58;1.05;;;0.60;99.90;;;;;;12545049;28;20053;-78
2023/02/25 19:52:18;;;;;;;5.38;1.10;;;0.60;99.90;;;;;;12525413;28;20131;-78
2023/02/25 19:58:20;;;;;;;5.57;0.98;;;0.50;99.90;;;;;;12524683;28;20144;-78
2023/02/25 20:04:22;;;;;;;6.03;0.90;;;0.50;99.90;;;;;;12542537;28;20048;-78
2023/02/25 20:10:24;;;;;;;3.83;0.95;;;0.40;99.90;;;;;;12526631;28;20053;-78
2023/02/25 20:16:26;;;;;;;1.92;0.98;;;0.50;99.90;;;;;;12528351;28;20068;-78
2023/02/25 20:22:28;;;;;;;4.57;1.35;;;0.40;99.90;;;;;;12532203;28;20056;-78
2023/02/25 20:28:30;;;;;;;3.75;1.40;;;0.50;99.90;;;;;;12533587;28;20044;-78
2023/02/25 20:34:32;;;;;;;4.20;1.52;;;0.60;99.90;;;;;;12532679;28;20064;-78
2023/02/25 20:40:34;;;;;;;5.97;2.10;;;0.60;99.90;;;;;;12526543;28;20140;-78
2023/02/25 20:46:37;;;;;;;15.55;4.60;;;0.60;99.90;;;;;;12521001;28;20138;-78
2023/02/25 20:52:38;;;;;;;11.80;4.72;;;0.60;99.90;;;;;;12511966;28;20053;-79
2023/02/25 20:58:41;;;;;;;24.08;6.95;;;0.50;99.90;;;;;;12545940;28;20057;-78
2023/02/25 21:04:43;;;;;;;14.63;3.75;;;0.40;99.90;;;;;;12534645;28;20122;-79
2023/02/25 21:10:45;;;;;;;4.88;2.30;;;0.20;99.90;;;;;;12523838;28;20132;-79
2023/02/25 21:16:52;;;;;;;4.05;1.90;;;0.20;99.90;;;;;;12523001;28;20053;-79
2023/02/25 21:22:54;;;;;;;7.07;2.20;;;0.00;99.90;;;;;;12536707;28;20461;-78
2023/02/25 21:28:57;;;;;;;4.93;1.63;;;-0.10;99.90;;;;;;12526176;28;20381;-78
2023/02/25 21:34:59;;;;;;;2.92;1.35;;;-0.10;99.90;;;;;;12533131;28;20052;-79
2023/02/25 21:41:05;;;;;;;5.70;1.33;;;-0.20;99.90;;;;;;12541970;28;20052;-77
2023/02/25 21:47:07;;;;;;;4.38;1.90;;;-0.30;99.90;;;;;;12521937;28;20057;-78
2023/02/25 21:53:09;;;;;;;3.42;1.55;;;-0.30;99.90;;;;;;12537448;28;20070;-78
2023/02/25 21:59:10;;;;;;;3.17;1.35;;;-0.40;99.90;;;;;;12546152;28;20052;-78
2023/02/25 22:05:12;;;;;;;7.75;1.40;;;-0.50;99.90;;;;;;12537408;28;20079;-78
2023/02/25 22:11:20;;;;;;;4.35;1.48;;;-0.50;99.90;;;;;;12544776;28;20144;-79
2023/02/25 22:17:22;;;;;;;5.10;1.23;;;-0.40;99.90;;;;;;12538229;28;20132;-79
2023/02/25 22:23:24;;;;;;;4.50;1.58;;;-0.30;99.90;;;;;;12535902;28;20420;-78
2023/02/25 22:29:26;;;;;;;5.47;1.50;;;-0.30;99.90;;;;;;12532642;28;20432;-78
2023/02/25 22:35:28;;;;;;;4.30;1.52;;;-0.10;99.90;;;;;;12533788;28;20704;-79
2023/02/25 22:41:30;;;;;;;2.85;1.45;;;-0.20;99.90;;;;;;12534644;28;20412;-78
2023/02/25 22:47:32;;;;;;;4.70;1.50;;;-0.30;99.90;;;;;;12477168;28;20089;-79
2023/02/25 22:53:34;;;;;;;4.05;1.60;;;-0.30;99.90;;;;;;12479559;28;20053;-78
2023/02/25 22:59:36;;;;;;;4.22;1.58;;;-0.30;99.90;;;;;;12498440;28;20049;-78
2023/02/25 23:05:38;;;;;;;3.80;1.48;;;-0.40;99.90;;;;;;12478146;28;20076;-79
2023/02/25 23:11:41;;;;;;;4.60;1.60;;;-0.60;99.90;;;;;;12504066;28;20074;-80
2023/02/25 23:17:44;;;;;;;8.77;1.60;;;-0.60;99.90;;;;;;12482278;28;20054;-79
2023/02/25 23:23:52;;;;;;;3.90;1.55;;;-0.70;99.90;;;;;;12492798;28;20224;-79
2023/02/25 23:29:54;;;;;;;3.05;1.48;;;-0.70;99.90;;;;;;12496167;28;20045;-79
2023/02/25 23:35:57;;;;;;;4.15;1.63;;;-0.60;99.90;;;;;;12475766;28;20068;-79
2023/02/25 23:41:59;;;;;;;3.17;1.63;;;-0.70;99.90;;;;;;12472183;28;20049;-79
2023/02/25 23:48:01;;;;;;;4.00;1.63;;;-0.80;99.90;;;;;;12542806;28;20505;-79
2023/02/25 23:54:05;;;;;;;5.65;1.45;;;-0.90;99.90;;;;;;12512058;28;20575;-79
